Terminal Aerodrome Forecast
Issued by NWS

Home | Current Version | Previous Version | Graphics & Text | Print | Product List | Glossary On
Versions: 1 2 3 4 5 6 7 8 9 10 11 12 13 14 15 16 17 18 19 20 21 22 23 24 25 26 27 28 29 30 31 32 33
211
FTUS43 KABR 230602 CCA
TAFATY
TAF COR
KATY 230602Z 2306/2406 31015KT P6SM -SHRA VCTS BKN060CB
      TEMPO 2306/2307 2SM TSRA BKN015CB
     FM230800 32010KT P6SM SHRA VCTS OVC010CB
     FM231200 03007KT P6SM VCSH OVC015
     FM231600 04006KT P6SM -SHRA OVC015
     FM231900 03009KT P6SM OVC015
     FM232300 03008KT 2SM SHRA BR OVC015=

USA.gov is the U.S. government's official web portal to all federal, state and local government web resources and services.